createdAt,value
2017-05-07T00:00:57.172Z,1003.95
2017-05-07T00:01:58.431Z,1003.97
2017-05-07T00:02:59.754Z,1003.97
2017-05-07T00:04:01.097Z,1004.02
2017-05-07T00:05:02.348Z,1003.99
2017-05-07T00:06:03.591Z,1004.02
2017-05-07T00:07:04.845Z,1004.01
2017-05-07T00:08:06.106Z,1004.02
2017-05-07T00:09:07.456Z,1004.01
2017-05-07T00:10:08.754Z,1004.02
2017-05-07T00:11:10.006Z,1004
2017-05-07T00:12:11.261Z,1003.99
2017-05-07T00:13:12.494Z,1003.96
2017-05-07T00:14:13.874Z,1004
2017-05-07T00:15:15.171Z,1004.02
2017-05-07T00:16:16.456Z,1004.02
2017-05-07T00:17:17.726Z,1003.99
2017-05-07T00:18:19.008Z,1004.03
2017-05-07T00:19:20.273Z,1004.03
2017-05-07T00:20:21.555Z,1004.05
2017-05-07T00:21:22.892Z,1004.04
2017-05-07T00:22:24.264Z,1004.03
2017-05-07T00:23:25.421Z,1004
2017-05-07T00:24:26.758Z,1004.01
2017-05-07T00:25:28.015Z,1004.05
2017-05-07T00:26:29.440Z,1004.04
2017-05-07T00:27:30.710Z,1004.07
2017-05-07T00:28:31.974Z,1004.07
2017-05-07T00:29:33.211Z,1004.07
2017-05-07T00:30:34.494Z,1004.07
2017-05-07T00:31:35.763Z,1004.06
2017-05-07T00:32:37.124Z,1004.06
2017-05-07T00:33:38.579Z,1004.08
2017-05-07T00:34:39.836Z,1004.03
2017-05-07T00:35:41.152Z,1004.07
2017-05-07T00:36:42.439Z,1004.03
2017-05-07T00:37:43.773Z,1003.97
2017-05-07T00:38:45.061Z,1003.99
2017-05-07T00:39:46.333Z,1003.94
2017-05-07T00:40:47.652Z,1003.97
2017-05-07T00:41:48.863Z,1003.99
2017-05-07T00:42:50.112Z,1004.01
2017-05-07T00:43:51.371Z,1004.03
2017-05-07T00:44:52.625Z,1004.04
2017-05-07T00:45:53.902Z,1004.01
2017-05-07T00:46:55.152Z,1003.97
2017-05-07T00:47:56.403Z,1004.02
2017-05-07T00:48:57.678Z,1004.02
2017-05-07T00:49:58.973Z,1004.02
2017-05-07T00:51:00.209Z,1004
2017-05-07T00:52:01.542Z,1004.01
2017-05-07T00:53:02.822Z,1004.04
2017-05-07T00:54:04.071Z,1004.03
2017-05-07T00:55:05.330Z,1004.07
2017-05-07T00:56:06.594Z,1004.06
2017-05-07T00:57:07.866Z,1004.06
2017-05-07T00:58:09.200Z,1004.07
2017-05-07T00:59:10.463Z,1004.06
2017-05-07T01:00:11.718Z,1004.06
2017-05-07T01:01:13.000Z,1004.06
2017-05-07T01:02:14.310Z,1004.08
2017-05-07T01:03:15.593Z,1004.09
2017-05-07T01:04:16.953Z,1004.08
2017-05-07T01:05:18.167Z,1004.1
2017-05-07T01:06:19.429Z,1004.08
2017-05-07T01:07:20.659Z,1004.1
2017-05-07T01:08:21.991Z,1004.04
2017-05-07T01:09:23.265Z,1004.11
2017-05-07T01:10:24.557Z,1004.1
2017-05-07T01:11:25.790Z,1004.04
2017-05-07T01:12:27.046Z,1004.04
2017-05-07T01:13:28.293Z,1004.05
2017-05-07T01:14:29.563Z,1004.01
2017-05-07T01:15:30.872Z,1004.02
2017-05-07T01:16:32.127Z,1004.05
2017-05-07T01:17:33.378Z,1004.07
2017-05-07T01:18:34.616Z,1004.05
2017-05-07T01:19:35.876Z,1004.04
2017-05-07T01:20:37.128Z,1004.02
2017-05-07T01:21:38.407Z,1004.05
2017-05-07T01:22:39.673Z,1004.05
2017-05-07T01:23:40.937Z,1004.07
2017-05-07T01:24:42.177Z,1004.1
2017-05-07T01:25:43.430Z,1004.09
2017-05-07T01:26:44.665Z,1004.09
2017-05-07T01:27:45.908Z,1004.1
2017-05-07T01:28:47.171Z,1004.1
2017-05-07T01:29:48.466Z,1004.11
2017-05-07T01:30:49.717Z,1004.12
2017-05-07T01:31:51.007Z,1004.14
2017-05-07T01:32:52.262Z,1004.1
2017-05-07T01:33:53.549Z,1004.1
2017-05-07T01:34:54.849Z,1004.09
2017-05-07T01:35:56.102Z,1004.08
2017-05-07T01:36:57.353Z,1004.11
2017-05-07T01:37:58.634Z,1004.09
2017-05-07T01:38:59.943Z,1004.12
2017-05-07T01:40:01.162Z,1004.1
2017-05-07T01:41:02.423Z,1004.11
2017-05-07T01:42:03.677Z,1004.13
2017-05-07T01:43:04.953Z,1004.13
2017-05-07T01:44:06.232Z,1004.18
2017-05-07T01:45:07.542Z,1004.19
2017-05-07T01:46:08.901Z,1004.18
2017-05-07T01:47:10.145Z,1004.17
2017-05-07T01:48:11.375Z,1004.16
2017-05-07T01:49:12.646Z,1004.2
2017-05-07T01:50:13.896Z,1004.23
2017-05-07T01:51:15.173Z,1004.21
2017-05-07T01:52:16.438Z,1004.26
2017-05-07T01:53:17.683Z,1004.22
2017-05-07T01:54:18.948Z,1004.25
2017-05-07T01:55:20.210Z,1004.27
2017-05-07T01:56:21.460Z,1004.26
2017-05-07T01:57:22.690Z,1004.24
2017-05-07T01:58:23.945Z,1004.26
2017-05-07T01:59:25.217Z,1004.27
2017-05-07T02:00:26.499Z,1004.26
2017-05-07T02:01:27.767Z,1004.29
2017-05-07T02:02:29.005Z,1004.27
2017-05-07T02:03:30.252Z,1004.25
2017-05-07T02:04:31.503Z,1004.24
2017-05-07T02:05:32.860Z,1004.24
2017-05-07T02:06:34.135Z,1004.23
2017-05-07T02:07:35.371Z,1004.28
2017-05-07T02:08:36.625Z,1004.26
2017-05-07T02:09:37.926Z,1004.3
2017-05-07T02:10:39.238Z,1004.24
2017-05-07T02:11:40.566Z,1004.29
2017-05-07T02:12:41.817Z,1004.24
2017-05-07T02:13:43.098Z,1004.23
2017-05-07T02:14:44.323Z,1004.25
2017-05-07T02:15:45.577Z,1004.22
2017-05-07T02:16:46.870Z,1004.24
2017-05-07T02:17:48.146Z,1004.19
2017-05-07T02:18:49.387Z,1004.18
2017-05-07T02:19:50.628Z,1004.18
2017-05-07T02:20:51.881Z,1004.15
2017-05-07T02:21:53.160Z,1004.16
2017-05-07T02:22:54.405Z,1004.17
2017-05-07T02:23:55.674Z,1004.12
2017-05-07T02:24:56.925Z,1004.18
2017-05-07T02:25:58.177Z,1004.14
2017-05-07T02:26:59.421Z,1004.14
2017-05-07T02:28:00.727Z,1004.13
2017-05-07T02:29:02.000Z,1004.13
2017-05-07T02:30:03.272Z,1004.15
2017-05-07T02:31:04.549Z,1004.18
2017-05-07T02:32:05.785Z,1004.18
2017-05-07T02:33:07.060Z,1004.15
2017-05-07T02:34:08.365Z,1004.19
2017-05-07T02:35:09.588Z,1004.18
2017-05-07T02:36:10.862Z,1004.19
2017-05-07T02:37:12.130Z,1004.18
2017-05-07T02:38:13.369Z,1004.15
2017-05-07T02:39:14.619Z,1004.14
2017-05-07T02:40:15.889Z,1004.15
2017-05-07T02:41:17.216Z,1004.13
2017-05-07T02:42:18.475Z,1004.15
2017-05-07T02:43:19.738Z,1004.14
2017-05-07T02:44:21.009Z,1004.13
2017-05-07T02:45:22.274Z,1004.15
2017-05-07T02:46:23.693Z,1004.16
2017-05-07T02:47:25.034Z,1004.17
2017-05-07T02:48:26.352Z,1004.13
2017-05-07T02:49:27.592Z,1004.15
2017-05-07T02:50:28.831Z,1004.14
2017-05-07T02:51:30.090Z,1004.14
2017-05-07T02:52:31.333Z,1004.17
2017-05-07T02:53:32.588Z,1004.2
2017-05-07T02:54:33.819Z,1004.2
2017-05-07T02:55:35.112Z,1004.23
2017-05-07T02:56:36.390Z,1004.23
2017-05-07T02:57:37.712Z,1004.26
2017-05-07T02:58:39.049Z,1004.27
2017-05-07T02:59:40.297Z,1004.28
2017-05-07T03:00:41.567Z,1004.29
2017-05-07T03:01:42.857Z,1004.27
2017-05-07T03:02:44.107Z,1004.28
2017-05-07T03:03:45.381Z,1004.28
2017-05-07T03:04:46.634Z,1004.26
2017-05-07T03:05:47.964Z,1004.26
2017-05-07T03:06:49.293Z,1004.24
2017-05-07T03:07:50.573Z,1004.25
2017-05-07T03:08:51.821Z,1004.24
2017-05-07T03:09:53.093Z,1004.26
2017-05-07T03:10:54.337Z,1004.24
2017-05-07T03:11:55.725Z,1004.26
2017-05-07T03:12:57.100Z,1004.29
2017-05-07T03:13:58.384Z,1004.26
2017-05-07T03:14:59.662Z,1004.25
2017-05-07T03:16:00.946Z,1004.24
2017-05-07T03:17:02.185Z,1004.25
2017-05-07T03:18:03.469Z,1004.27
2017-05-07T03:19:04.722Z,1004.23
2017-05-07T03:20:05.972Z,1004.23
2017-05-07T03:21:07.224Z,1004.23
2017-05-07T03:22:08.476Z,1004.22
2017-05-07T03:23:09.738Z,1004.25
2017-05-07T03:24:10.957Z,1004.2
2017-05-07T03:25:12.228Z,1004.18
2017-05-07T03:26:13.558Z,1004.22
2017-05-07T03:27:14.804Z,1004.18
2017-05-07T03:28:16.097Z,1004.22
2017-05-07T03:29:17.432Z,1004.19
2017-05-07T03:30:18.673Z,1004.19
2017-05-07T03:31:19.942Z,1004.2
2017-05-07T03:32:21.243Z,1004.2
2017-05-07T03:33:22.522Z,1004.17
2017-05-07T03:34:23.800Z,1004.19
2017-05-07T03:35:25.074Z,1004.23
2017-05-07T03:36:26.346Z,1004.23
2017-05-07T03:37:27.623Z,1004.22
2017-05-07T03:38:28.899Z,1004.24
2017-05-07T03:39:30.145Z,1004.26
2017-05-07T03:40:31.393Z,1004.24
2017-05-07T03:41:32.668Z,1004.26
2017-05-07T03:42:33.911Z,1004.24
2017-05-07T03:43:35.244Z,1004.23
2017-05-07T03:44:36.470Z,1004.21
2017-05-07T03:45:37.996Z,1004.23
2017-05-07T03:46:39.420Z,1004.21
2017-05-07T03:47:40.695Z,1004.22
2017-05-07T03:48:41.935Z,1004.24
2017-05-07T03:49:43.175Z,1004.21
2017-05-07T03:50:44.448Z,1004.23
2017-05-07T03:51:45.731Z,1004.25
2017-05-07T03:52:46.992Z,1004.25
2017-05-07T03:53:48.263Z,1004.27
2017-05-07T03:54:49.579Z,1004.27
2017-05-07T03:55:50.822Z,1004.32
2017-05-07T03:56:52.064Z,1004.25
2017-05-07T03:57:53.310Z,1004.25
2017-05-07T03:58:54.650Z,1004.25
2017-05-07T03:59:55.877Z,1004.29
2017-05-07T04:00:57.278Z,1004.27
2017-05-07T04:01:58.515Z,1004.24
2017-05-07T04:02:59.873Z,1004.26
2017-05-07T04:04:01.261Z,1004.28
2017-05-07T04:05:02.513Z,1004.27
2017-05-07T04:06:03.775Z,1004.23
2017-05-07T04:07:05.045Z,1004.26
2017-05-07T04:08:06.335Z,1004.23
2017-05-07T04:09:07.618Z,1004.22
2017-05-07T04:10:08.919Z,1004.26
2017-05-07T04:11:10.158Z,1004.27
2017-05-07T04:12:11.397Z,1004.28
2017-05-07T04:13:12.715Z,1004.28
2017-05-07T04:14:13.939Z,1004.28
2017-05-07T04:15:15.247Z,1004.28
2017-05-07T04:16:16.465Z,1004.22
2017-05-07T04:17:17.689Z,1004.26
2017-05-07T04:18:18.931Z,1004.26
2017-05-07T04:19:20.202Z,1004.3
2017-05-07T04:20:21.457Z,1004.32
2017-05-07T04:21:22.697Z,1004.31
2017-05-07T04:22:24.107Z,1004.34
2017-05-07T04:23:25.364Z,1004.35
2017-05-07T04:24:26.672Z,1004.33
2017-05-07T04:25:27.913Z,1004.39
2017-05-07T04:26:29.149Z,1004.39
2017-05-07T04:27:30.389Z,1004.38
2017-05-07T04:28:31.657Z,1004.4
2017-05-07T04:29:32.995Z,1004.41
2017-05-07T04:30:34.256Z,1004.39
2017-05-07T04:31:35.507Z,1004.41
2017-05-07T04:32:36.757Z,1004.45
2017-05-07T04:33:38.115Z,1004.43
2017-05-07T04:34:39.368Z,1004.41
2017-05-07T04:35:40.634Z,1004.43
2017-05-07T04:36:41.886Z,1004.41
2017-05-07T04:37:43.139Z,1004.42
2017-05-07T04:38:44.429Z,1004.46
2017-05-07T04:39:45.677Z,1004.45
2017-05-07T04:40:46.946Z,1004.44
2017-05-07T04:41:48.196Z,1004.43
2017-05-07T04:42:49.450Z,1004.45
2017-05-07T04:43:50.731Z,1004.46
2017-05-07T04:44:52.021Z,1004.44
2017-05-07T04:45:53.272Z,1004.45
2017-05-07T04:46:54.532Z,1004.46
2017-05-07T04:47:55.827Z,1004.51
2017-05-07T04:48:57.120Z,1004.46
2017-05-07T04:49:58.366Z,1004.5
2017-05-07T04:50:59.612Z,1004.51
2017-05-07T04:52:00.896Z,1004.53
2017-05-07T04:53:02.126Z,1004.53
2017-05-07T04:54:03.439Z,1004.57
2017-05-07T04:55:04.740Z,1004.6
2017-05-07T04:56:05.989Z,1004.6
2017-05-07T04:57:07.244Z,1004.59
2017-05-07T04:58:08.504Z,1004.6
2017-05-07T04:59:09.774Z,1004.62
2017-05-07T05:00:11.010Z,1004.63
2017-05-07T05:01:12.258Z,1004.63
2017-05-07T05:02:13.548Z,1004.64
2017-05-07T05:03:14.750Z,1004.65
2017-05-07T05:04:16.049Z,1004.67
2017-05-07T05:05:17.337Z,1004.67
2017-05-07T05:06:18.619Z,1004.65
2017-05-07T05:07:19.862Z,1004.65
2017-05-07T05:08:21.110Z,1004.69
2017-05-07T05:09:22.366Z,1004.71
2017-05-07T05:10:23.748Z,1004.7
2017-05-07T05:11:25.341Z,1004.68
2017-05-07T05:12:26.605Z,1004.71
2017-05-07T05:13:27.847Z,1004.77
2017-05-07T05:14:29.108Z,1004.8
2017-05-07T05:15:30.347Z,1004.77
2017-05-07T05:16:31.735Z,1004.82
2017-05-07T05:17:32.967Z,1004.8
2017-05-07T05:18:34.221Z,1004.81
2017-05-07T05:19:35.490Z,1004.81
2017-05-07T05:20:36.760Z,1004.9
2017-05-07T05:21:38.019Z,1004.88
2017-05-07T05:22:39.412Z,1004.92
2017-05-07T05:23:40.709Z,1004.95
2017-05-07T05:24:41.930Z,1004.88
2017-05-07T05:25:43.182Z,1004.91
2017-05-07T05:26:44.428Z,1004.93
2017-05-07T05:27:45.755Z,1004.97
2017-05-07T05:28:46.997Z,1004.96
2017-05-07T05:29:48.299Z,1004.96
2017-05-07T05:30:49.583Z,1004.92
2017-05-07T05:31:50.851Z,1004.96
2017-05-07T05:32:52.198Z,1004.95
2017-05-07T05:33:53.507Z,1004.99
2017-05-07T05:34:54.784Z,1005.05
2017-05-07T05:35:56.027Z,1005.01
2017-05-07T05:36:57.272Z,1004.98
2017-05-07T05:37:58.527Z,1005.06
2017-05-07T05:38:59.778Z,1005.03
2017-05-07T05:40:01.059Z,1005.09
2017-05-07T05:41:02.302Z,1005.08
2017-05-07T05:42:03.644Z,1005.12
2017-05-07T05:43:04.904Z,1005.13
2017-05-07T05:44:06.151Z,1005.13
2017-05-07T05:45:07.440Z,1005.14
2017-05-07T05:46:08.679Z,1005.12
2017-05-07T05:47:09.923Z,1005.17
2017-05-07T05:48:11.233Z,1005.19
2017-05-07T05:49:12.484Z,1005.18
2017-05-07T05:50:13.758Z,1005.18
2017-05-07T05:51:14.991Z,1005.17
2017-05-07T05:52:16.249Z,1005.13
2017-05-07T05:53:17.583Z,1005.19
2017-05-07T05:54:18.982Z,1005.21
2017-05-07T05:55:20.245Z,1005.21
2017-05-07T05:56:21.472Z,1005.2
2017-05-07T05:57:22.741Z,1005.21
2017-05-07T05:58:24.082Z,1005.2
2017-05-07T05:59:25.355Z,1005.25
2017-05-07T06:00:26.601Z,1005.22
2017-05-07T06:01:27.877Z,1005.26
2017-05-07T06:02:29.109Z,1005.22
2017-05-07T06:03:30.371Z,1005.25
2017-05-07T06:04:31.686Z,1005.26
2017-05-07T06:05:33.027Z,1005.28
2017-05-07T06:06:34.254Z,1005.28
2017-05-07T06:07:35.631Z,1005.25
2017-05-07T06:08:36.866Z,1005.24
2017-05-07T06:09:38.111Z,1005.25
2017-05-07T06:10:39.366Z,1005.23
2017-05-07T06:11:40.653Z,1005.27
2017-05-07T06:12:41.934Z,1005.31
2017-05-07T06:13:43.183Z,1005.34
2017-05-07T06:14:44.420Z,1005.34
2017-05-07T06:15:45.659Z,1005.3
2017-05-07T06:16:46.918Z,1005.31
2017-05-07T06:17:48.200Z,1005.33
2017-05-07T06:18:49.516Z,1005.35
2017-05-07T06:19:50.899Z,1005.39
2017-05-07T06:20:52.153Z,1005.38
2017-05-07T06:21:53.370Z,1005.38
2017-05-07T06:22:54.637Z,1005.38
2017-05-07T06:23:55.884Z,1005.39
2017-05-07T06:24:57.191Z,1005.4
2017-05-07T06:25:58.425Z,1005.4
2017-05-07T06:26:59.703Z,1005.43
2017-05-07T06:28:00.954Z,1005.44
2017-05-07T06:29:02.188Z,1005.43
2017-05-07T06:30:03.540Z,1005.42
2017-05-07T06:31:04.774Z,1005.45
2017-05-07T06:32:06.027Z,1005.41
2017-05-07T06:33:07.306Z,1005.44
2017-05-07T06:34:08.570Z,1005.45
2017-05-07T06:35:09.876Z,1005.43
2017-05-07T06:36:11.192Z,1005.49
2017-05-07T06:37:12.445Z,1005.51
2017-05-07T06:38:13.701Z,1005.52
2017-05-07T06:39:14.952Z,1005.55
2017-05-07T06:40:16.238Z,1005.57
2017-05-07T06:41:17.513Z,1005.55
2017-05-07T06:42:18.796Z,1005.58
2017-05-07T06:43:20.064Z,1005.6
2017-05-07T06:44:21.326Z,1005.64
2017-05-07T06:45:22.587Z,1005.62
2017-05-07T06:46:23.868Z,1005.7
2017-05-07T06:47:25.143Z,1005.71
2017-05-07T06:48:26.386Z,1005.72
2017-05-07T06:49:27.667Z,1005.73
2017-05-07T06:50:28.888Z,1005.69
2017-05-07T06:51:30.129Z,1005.71
2017-05-07T06:52:31.466Z,1005.75
2017-05-07T06:53:32.775Z,1005.76
2017-05-07T06:54:34.036Z,1005.78
2017-05-07T06:55:35.327Z,1005.77
2017-05-07T06:56:36.576Z,1005.78
2017-05-07T06:57:37.899Z,1005.82
2017-05-07T06:58:39.152Z,1005.85
2017-05-07T06:59:40.482Z,1005.87
2017-05-07T07:00:41.900Z,1005.86
2017-05-07T07:01:43.163Z,1005.87
2017-05-07T07:02:44.427Z,1005.86
2017-05-07T07:03:45.647Z,1005.87
2017-05-07T07:04:46.921Z,1005.87
2017-05-07T07:05:48.202Z,1005.88
2017-05-07T07:06:49.494Z,1005.89
2017-05-07T07:07:50.783Z,1005.9
2017-05-07T07:08:52.041Z,1005.94
2017-05-07T07:09:53.294Z,1005.94
2017-05-07T07:10:54.557Z,1005.92
2017-05-07T07:11:55.913Z,1005.92
2017-05-07T07:12:57.238Z,1005.96
2017-05-07T07:13:58.503Z,1005.94
2017-05-07T07:14:59.772Z,1005.98
2017-05-07T07:16:01.031Z,1005.97
2017-05-07T07:17:02.288Z,1005.99
2017-05-07T07:18:03.537Z,1005.99
2017-05-07T07:19:04.995Z,1005.97
2017-05-07T07:20:06.274Z,1005.96
2017-05-07T07:21:07.566Z,1006.04
2017-05-07T07:22:08.816Z,1006.05
2017-05-07T07:23:10.125Z,1006.03
2017-05-07T07:24:11.465Z,1006.03
2017-05-07T07:25:12.765Z,1006.05
2017-05-07T07:26:14.017Z,1006.06
2017-05-07T07:27:15.285Z,1006.06
2017-05-07T07:28:16.516Z,1006.08
2017-05-07T07:29:17.814Z,1006.11
2017-05-07T07:30:19.212Z,1006.05
2017-05-07T07:31:20.461Z,1006.13
2017-05-07T07:32:21.708Z,1006.14
2017-05-07T07:33:22.985Z,1006.16
2017-05-07T07:34:24.258Z,1006.14
2017-05-07T07:35:25.515Z,1006.17
2017-05-07T07:36:26.785Z,1006.19
2017-05-07T07:37:28.043Z,1006.16
2017-05-07T07:38:29.312Z,1006.17
2017-05-07T07:39:30.607Z,1006.15
2017-05-07T07:40:32.062Z,1006.16
2017-05-07T07:41:33.321Z,1006.21
2017-05-07T07:42:34.600Z,1006.2
2017-05-07T07:43:35.845Z,1006.22
2017-05-07T07:44:37.129Z,1006.21
2017-05-07T07:45:38.377Z,1006.24
2017-05-07T07:46:39.625Z,1006.21
2017-05-07T07:47:41.048Z,1006.26
2017-05-07T07:48:42.208Z,1006.26
2017-05-07T07:49:43.502Z,1006.27
2017-05-07T07:50:44.718Z,1006.28
2017-05-07T07:51:45.970Z,1006.3
2017-05-07T07:52:47.252Z,1006.29
2017-05-07T07:53:48.519Z,1006.27
2017-05-07T07:54:49.791Z,1006.29
2017-05-07T07:55:51.068Z,1006.32
2017-05-07T07:56:52.381Z,1006.33
2017-05-07T07:57:53.626Z,1006.3
2017-05-07T07:58:54.879Z,1006.34
2017-05-07T07:59:56.186Z,1006.38
2017-05-07T08:00:57.517Z,1006.41
2017-05-07T08:01:58.876Z,1006.42
2017-05-07T08:03:00.123Z,1006.45
2017-05-07T08:04:01.406Z,1006.4
2017-05-07T08:05:02.653Z,1006.42
2017-05-07T08:06:03.957Z,1006.41
2017-05-07T08:07:05.230Z,1006.37
2017-05-07T08:08:06.477Z,1006.39
2017-05-07T08:09:07.755Z,1006.42
2017-05-07T08:10:09.004Z,1006.44
2017-05-07T08:11:10.367Z,1006.45
2017-05-07T08:12:11.704Z,1006.41
2017-05-07T08:13:12.982Z,1006.46
2017-05-07T08:14:14.263Z,1006.48
2017-05-07T08:15:15.532Z,1006.46
2017-05-07T08:16:16.786Z,1006.47
2017-05-07T08:17:18.101Z,1006.5
2017-05-07T08:18:19.381Z,1006.5
2017-05-07T08:19:20.601Z,1006.5
2017-05-07T08:20:21.861Z,1006.51
2017-05-07T08:21:23.117Z,1006.56
2017-05-07T08:22:24.383Z,1006.5
2017-05-07T08:23:25.621Z,1006.47
2017-05-07T08:24:26.889Z,1006.54
2017-05-07T08:25:28.125Z,1006.56
2017-05-07T08:26:29.402Z,1006.55
2017-05-07T08:27:30.637Z,1006.55
2017-05-07T08:28:31.903Z,1006.57
2017-05-07T08:29:33.211Z,1006.61
2017-05-07T08:30:34.472Z,1006.61
2017-05-07T08:31:35.780Z,1006.65
2017-05-07T08:32:37.071Z,1006.68
2017-05-07T08:33:38.307Z,1006.69
2017-05-07T08:34:39.581Z,1006.71
2017-05-07T08:35:40.838Z,1006.69
2017-05-07T08:36:42.155Z,1006.71
2017-05-07T08:37:43.502Z,1006.69
2017-05-07T08:38:44.785Z,1006.71
2017-05-07T08:39:46.047Z,1006.75
2017-05-07T08:40:47.282Z,1006.74
2017-05-07T08:41:48.560Z,1006.75
2017-05-07T08:42:49.813Z,1006.78
2017-05-07T08:43:51.068Z,1006.78
2017-05-07T08:44:52.320Z,1006.78
2017-05-07T08:45:53.558Z,1006.79
2017-05-07T08:46:54.886Z,1006.78
2017-05-07T08:47:56.219Z,1006.8
2017-05-07T08:48:57.547Z,1006.8
2017-05-07T08:49:58.812Z,1006.79
2017-05-07T08:51:00.083Z,1006.82
2017-05-07T08:52:01.373Z,1006.82
2017-05-07T08:53:02.611Z,1006.85
2017-05-07T08:54:03.897Z,1006.84
2017-05-07T08:55:05.323Z,1006.88
2017-05-07T08:56:06.569Z,1006.83
2017-05-07T08:57:07.865Z,1006.86
2017-05-07T08:58:09.095Z,1006.88
2017-05-07T08:59:10.379Z,1006.88
2017-05-07T09:00:11.735Z,1006.84
2017-05-07T09:01:13.151Z,1006.89
2017-05-07T09:02:14.411Z,1006.93
2017-05-07T09:03:15.683Z,1006.92
2017-05-07T09:04:16.944Z,1006.94
2017-05-07T09:05:18.206Z,1006.93
2017-05-07T09:06:19.481Z,1006.93
2017-05-07T09:07:20.780Z,1006.97
2017-05-07T09:08:22.029Z,1006.97
2017-05-07T09:09:23.281Z,1007.02
2017-05-07T09:10:24.532Z,1007.01
2017-05-07T09:11:25.808Z,1007.01
2017-05-07T09:12:27.035Z,1007.06
2017-05-07T09:13:28.300Z,1007.08
2017-05-07T09:14:29.596Z,1007.08
2017-05-07T09:15:30.867Z,1007.1
2017-05-07T09:16:32.166Z,1007.08
2017-05-07T09:17:33.568Z,1007.11
2017-05-07T09:18:34.805Z,1007.08
2017-05-07T09:19:36.102Z,1007.09
2017-05-07T09:20:37.399Z,1007.13
2017-05-07T09:21:38.629Z,1007.14
2017-05-07T09:22:39.879Z,1007.1
2017-05-07T09:23:41.151Z,1007.12
2017-05-07T09:24:42.390Z,1007.15
2017-05-07T09:25:43.760Z,1007.13
2017-05-07T09:26:45.045Z,1007.14
2017-05-07T09:27:46.270Z,1007.15
2017-05-07T09:28:47.531Z,1007.17
2017-05-07T09:29:48.794Z,1007.18
2017-05-07T09:30:50.087Z,1007.19
2017-05-07T09:31:51.311Z,1007.21
2017-05-07T09:32:52.604Z,1007.19
2017-05-07T09:33:53.854Z,1007.22
2017-05-07T09:34:55.100Z,1007.2
2017-05-07T09:35:56.350Z,1007.28
2017-05-07T09:36:57.825Z,1007.26
2017-05-07T09:37:59.057Z,1007.3
2017-05-07T09:39:00.348Z,1007.53
2017-05-07T09:40:01.606Z,1007.56
2017-05-07T09:41:02.917Z,1007.43
2017-05-07T09:42:04.171Z,1007.31
2017-05-07T09:43:05.429Z,1007.41
2017-05-07T09:44:06.724Z,1007.37
2017-05-07T09:45:07.981Z,1007.46
2017-05-07T09:46:09.274Z,1007.43
2017-05-07T09:47:10.517Z,1007.41
2017-05-07T09:48:11.864Z,1007.39
2017-05-07T09:49:13.286Z,1007.41
2017-05-07T09:50:14.645Z,1007.6
2017-05-07T09:51:15.904Z,1007.68
2017-05-07T09:52:17.153Z,1007.51
2017-05-07T09:53:18.425Z,1007.43
2017-05-07T09:54:19.687Z,1007.42
2017-05-07T09:55:20.976Z,1007.41
2017-05-07T09:56:22.231Z,1007.47
2017-05-07T09:57:23.512Z,1007.46
2017-05-07T09:58:24.759Z,1007.43
2017-05-07T09:59:26.028Z,1007.45
2017-05-07T10:00:27.307Z,1007.45
2017-05-07T10:01:28.582Z,1007.42
2017-05-07T10:02:29.815Z,1007.33
2017-05-07T10:03:31.136Z,1007.44
2017-05-07T10:04:32.403Z,1007.58
2017-05-07T10:05:33.684Z,1007.57
2017-05-07T10:06:34.931Z,1007.49
2017-05-07T10:07:36.199Z,1007.59
2017-05-07T10:08:37.456Z,1007.69
2017-05-07T10:09:38.744Z,1007.41
2017-05-07T10:10:39.993Z,1007.36
2017-05-07T10:11:41.267Z,1007.48
2017-05-07T10:12:42.528Z,1007.44
2017-05-07T10:13:43.797Z,1007.44
2017-05-07T10:14:45.097Z,1007.45
2017-05-07T10:15:46.336Z,1007.42
2017-05-07T10:16:47.606Z,1007.38
2017-05-07T10:17:48.879Z,1007.41
2017-05-07T10:18:50.173Z,1007.41
2017-05-07T10:19:51.454Z,1007.32
2017-05-07T10:20:52.746Z,1007.32
2017-05-07T10:21:54.026Z,1007.41
2017-05-07T10:22:55.315Z,1007.38
2017-05-07T10:23:56.575Z,1007.34
2017-05-07T10:24:57.844Z,1007.39
2017-05-07T10:25:59.099Z,1007.41
2017-05-07T10:27:00.390Z,1007.34
2017-05-07T10:28:01.639Z,1007.33
2017-05-07T10:29:02.907Z,1007.38
2017-05-07T10:30:04.155Z,1007.42
2017-05-07T10:31:05.498Z,1007.43
2017-05-07T10:32:06.882Z,1007.39
2017-05-07T10:33:08.166Z,1007.51
2017-05-07T10:34:09.405Z,1007.49
2017-05-07T10:35:10.692Z,1007.47
2017-05-07T10:36:12.041Z,1007.51
2017-05-07T10:37:13.355Z,1007.48
2017-05-07T10:38:14.674Z,1007.49
2017-05-07T10:39:15.874Z,1007.49
2017-05-07T10:40:17.153Z,1007.45
2017-05-07T10:41:18.441Z,1007.39
2017-05-07T10:42:19.743Z,1007.42
2017-05-07T10:43:21.006Z,1007.41
2017-05-07T10:44:22.291Z,1007.39
2017-05-07T10:45:23.575Z,1007.45
2017-05-07T10:46:24.858Z,1007.46
2017-05-07T10:47:26.150Z,1007.42
2017-05-07T10:48:27.481Z,1007.36
2017-05-07T10:49:28.737Z,1007.31
2017-05-07T10:50:30.047Z,1007.36
2017-05-07T10:51:31.295Z,1007.42
2017-05-07T10:52:32.519Z,1007.39
2017-05-07T10:53:33.833Z,1007.35
2017-05-07T10:54:35.206Z,1007.33
2017-05-07T10:55:36.535Z,1007.36
2017-05-07T10:56:37.763Z,1007.33
2017-05-07T10:57:39.009Z,1007.34
2017-05-07T10:58:40.361Z,1007.3
2017-05-07T10:59:41.665Z,1007.25
2017-05-07T11:00:43.011Z,1007.28
2017-05-07T11:01:44.284Z,1007.32
2017-05-07T11:02:45.574Z,1007.32
2017-05-07T11:03:46.889Z,1007.28
2017-05-07T11:04:48.216Z,1007.26
2017-05-07T11:05:49.595Z,1007.28
2017-05-07T11:06:50.873Z,1007.27
2017-05-07T11:07:52.141Z,1007.33
2017-05-07T11:08:53.425Z,1007.27
2017-05-07T11:09:54.678Z,1007.32
2017-05-07T11:10:55.926Z,1007.28
2017-05-07T11:11:57.192Z,1007.33
2017-05-07T11:12:58.418Z,1007.33
2017-05-07T11:13:59.725Z,1007.33
2017-05-07T11:15:00.985Z,1007.3
2017-05-07T11:16:02.256Z,1007.28
2017-05-07T11:17:03.642Z,1007.25
2017-05-07T11:18:04.949Z,1007.3
2017-05-07T11:19:06.266Z,1007.27
2017-05-07T11:20:07.489Z,1007.31
2017-05-07T11:21:08.739Z,1007.37
2017-05-07T11:22:10.043Z,1007.31
2017-05-07T11:23:11.335Z,1007.36
2017-05-07T11:24:12.629Z,1007.32
2017-05-07T11:25:13.872Z,1007.3
2017-05-07T11:26:15.265Z,1007.3
2017-05-07T11:27:16.517Z,1007.3
2017-05-07T11:28:17.887Z,1007.29
2017-05-07T11:29:19.208Z,1007.31
2017-05-07T11:30:20.449Z,1007.26
2017-05-07T11:31:21.709Z,1007.28
2017-05-07T11:32:22.932Z,1007.29
2017-05-07T11:33:24.359Z,1007.31
2017-05-07T11:34:25.681Z,1007.28
2017-05-07T11:35:27.016Z,1007.28
2017-05-07T11:36:28.290Z,1007.3
2017-05-07T11:37:29.567Z,1007.22
2017-05-07T11:38:30.815Z,1007.22
2017-05-07T11:39:32.104Z,1007.26
2017-05-07T11:40:33.428Z,1007.28
2017-05-07T11:41:34.738Z,1007.28
2017-05-07T11:42:35.983Z,1007.28
2017-05-07T11:43:37.248Z,1007.26
2017-05-07T11:44:38.519Z,1007.24
2017-05-07T11:45:39.898Z,1007.23
2017-05-07T11:46:41.195Z,1007.23
2017-05-07T11:47:42.463Z,1007.24
2017-05-07T11:48:43.751Z,1007.24
2017-05-07T11:49:44.968Z,1007.22
2017-05-07T11:50:46.256Z,1007.24
2017-05-07T11:51:47.530Z,1007.22
2017-05-07T11:52:48.833Z,1007.23
2017-05-07T11:53:50.076Z,1007.26
2017-05-07T11:54:51.324Z,1007.23
2017-05-07T11:55:52.601Z,1007.28
2017-05-07T11:56:53.898Z,1007.28
2017-05-07T11:57:55.153Z,1007.24
2017-05-07T11:58:56.398Z,1007.3
2017-05-07T11:59:57.733Z,1007.27
2017-05-07T12:00:58.989Z,1007.29
2017-05-07T12:02:00.306Z,1007.29
2017-05-07T12:03:01.614Z,1007.25
2017-05-07T12:04:02.847Z,1007.27
2017-05-07T12:05:04.138Z,1007.26
2017-05-07T12:06:05.440Z,1007.22
2017-05-07T12:07:06.696Z,1007.26
2017-05-07T12:08:07.952Z,1007.23
2017-05-07T12:09:09.210Z,1007.21
2017-05-07T12:10:10.472Z,1007.15
2017-05-07T12:11:11.791Z,1007.15
2017-05-07T12:12:13.167Z,1007.18
2017-05-07T12:13:14.408Z,1007.17
2017-05-07T12:14:15.720Z,1007.18
2017-05-07T12:15:16.954Z,1007.16
2017-05-07T12:16:18.243Z,1007.21
2017-05-07T12:17:19.494Z,1007.22
2017-05-07T12:18:20.748Z,1007.25
2017-05-07T12:19:22.066Z,1007.27
2017-05-07T12:20:23.345Z,1007.25
2017-05-07T12:21:24.648Z,1007.25
2017-05-07T12:22:25.999Z,1007.28
2017-05-07T12:23:27.277Z,1007.3